^^
Station Historical Data
Daily Summary for Nil La, TWC- Units:  English    Metric   Both
« Previous Day
Next Day »
Daily Weekly Monthly Yearly Custom
  High: Low: Average:
Temperature: TemperatureF °F 44.6 °F 51.6 °F
Dew Point: DewpointF °F 36.9 °F 38.1 °F
Humidity: Humidity% 34% 62%
Wind Speed: WindSpeedMPHmph 0.0mph 1.1mph
Wind Gust: WindSpeedGustMPHmph - -
Wind- - East
Pressure: PressureIn in 30.13 in -
Precipitation: 0.00 in    
Historical Graphs
 
 
Tabular Data for Nil La, TWC-
Time Temperature Dew Point Pressure Wind Wind Speed Wind Gust Humidity Rainfall Rate (Hourly) solar Conditions
TemperatureF °F DewpointF °F PressureIn in Calm     Humidity% HourlyPrecipIn in SolarRadiationWatts/m^2 W/m2 Conditions
00:02 51.8 °F 37.9 °F 30.14 in Calm   1.0 mph 59% 0.00 in 0.0 W/m2
00:06 51.4 °F 37.9 °F 30.14 in Calm     60% 0.00 in 0.0 W/m2
00:12 51.1 °F 38.1 °F 30.15 in Calm     61% 0.00 in 0.0 W/m2
00:17 50.5 °F 37.6 °F 30.14 in Calm   1.0 mph 61% 0.00 in 0.0 W/m2
00:22 50.4 °F 37.8 °F 30.14 in Calm     62% 0.00 in 0.0 W/m2
00:27 50.2 °F 37.6 °F 30.14 in Calm   2.0 mph 62% 0.00 in 0.0 W/m2
00:32 49.8 °F 37.4 °F 30.14 in Calm     62% 0.00 in 0.0 W/m2
00:37 49.8 °F 37.8 °F 30.14 in Calm     63% 0.00 in 0.0 W/m2
00:42 49.6 °F 37.6 °F 30.14 in Calm   1.0 mph 63% 0.00 in 0.0 W/m2
00:47 49.5 °F 37.0 °F 30.15 in Calm   1.0 mph 62% 0.00 in 0.0 W/m2
00:52 49.3 °F 36.9 °F 30.15 in Calm     62% 0.00 in 0.0 W/m2
00:58 49.3 °F 37.9 °F 30.15 in Calm     65% 0.00 in 0.0 W/m2
01:04 49.1 °F 37.4 °F 30.15 in Calm   1.0 mph 64% 0.00 in 0.0 W/m2
01:09 48.9 °F 37.2 °F 30.15 in Calm     64% 0.00 in 0.0 W/m2
01:14 48.9 °F 37.8 °F 30.15 in Calm     65% 0.00 in 0.0 W/m2
01:19 48.7 °F 38.3 °F 30.15 in Calm   2.0 mph 67% 0.00 in 0.0 W/m2
01:24 48.6 °F 38.1 °F 30.14 in Calm     67% 0.00 in 0.0 W/m2
01:29 48.4 °F 37.6 °F 30.14 in Calm     66% 0.00 in 0.0 W/m2
01:34 48.4 °F 37.6 °F 30.14 in Calm     66% 0.00 in 0.0 W/m2
01:39 48.0 °F 37.6 °F 30.14 in SE 0.9 mph 2.0 mph 67% 0.00 in 0.0 W/m2
01:44 48.0 °F 37.6 °F 30.14 in SSE 2.9 mph 4.0 mph 67% 0.00 in 0.0 W/m2
01:49 47.8 °F 37.0 °F 30.14 in Calm   2.0 mph 66% 0.00 in 0.0 W/m2
01:54 47.8 °F 37.4 °F 30.14 in Calm     67% 0.00 in 0.0 W/m2
01:59 47.8 °F 37.8 °F 30.14 in SSE 2.9 mph 3.0 mph 68% 0.00 in 0.0 W/m2
02:05 47.8 °F 37.8 °F 30.14 in Calm     68% 0.00 in 0.0 W/m2
02:10 47.8 °F 37.8 °F 30.14 in Calm     68% 0.00 in 0.0 W/m2
02:15 47.8 °F 37.8 °F 30.14 in Calm     68% 0.00 in 0.0 W/m2
02:20 47.7 °F 37.6 °F 30.15 in Calm   2.0 mph 68% 0.00 in 0.0 W/m2
02:25 47.7 °F 37.6 °F 30.14 in South 0.9 mph 3.0 mph 68% 0.00 in 0.0 W/m2
02:30 47.7 °F 37.6 °F 30.14 in Calm   1.0 mph 68% 0.00 in 0.0 W/m2
02:35 47.5 °F 37.4 °F 30.14 in Calm     68% 0.00 in 0.0 W/m2
02:40 47.5 °F 37.8 °F 30.14 in Calm   2.0 mph 69% 0.00 in 0.0 W/m2
02:46 47.5 °F 37.8 °F 30.14 in Calm     69% 0.00 in 0.0 W/m2
02:51 47.5 °F 37.8 °F 30.14 in Calm     69% 0.00 in 0.0 W/m2
02:56 47.3 °F 37.9 °F 30.14 in Calm   1.0 mph 70% 0.00 in 0.0 W/m2
03:02 47.1 °F 37.8 °F 30.14 in Calm   2.0 mph 70% 0.00 in 0.0 W/m2
03:07 46.9 °F 37.6 °F 30.14 in Calm     70% 0.00 in 0.0 W/m2
03:12 46.9 °F 37.6 °F 30.14 in Calm   1.0 mph 70% 0.00 in 0.0 W/m2
03:17 46.8 °F 37.9 °F 30.14 in Calm   1.0 mph 71% 0.00 in 0.0 W/m2
03:22 46.8 °F 37.9 °F 30.14 in Calm     71% 0.00 in 0.0 W/m2
03:27 46.6 °F 37.8 °F 30.14 in Calm   1.0 mph 71% 0.00 in 0.0 W/m2
03:32 46.6 °F 37.8 °F 30.14 in Calm   1.0 mph 71% 0.00 in 0.0 W/m2
03:37 46.6 °F 37.8 °F 30.14 in South 0.9 mph 3.0 mph 71% 0.00 in 0.0 W/m2
03:43 46.6 °F 37.8 °F 30.14 in Calm     71% 0.00 in 0.0 W/m2
03:48 46.6 °F 37.8 °F 30.14 in Calm     71% 0.00 in 0.0 W/m2
03:53 46.4 °F 37.9 °F 30.14 in Calm     72% 0.00 in 0.0 W/m2
03:59 46.2 °F 37.8 °F 30.14 in Calm   1.0 mph 72% 0.00 in 0.0 W/m2
04:00 46.2 °F 37.8 °F 30.14 in Calm   1.0 mph 72% 0.00 in 0.0 W/m2
04:05 46.0 °F 37.6 °F 30.14 in Calm     72% 0.00 in 0.0 W/m2
04:10 46.0 °F 37.6 °F 30.14 in Calm   1.0 mph 72% 0.00 in 0.0 W/m2
04:16 45.9 °F 37.8 °F 30.13 in Calm     73% 0.00 in 0.0 W/m2
04:21 45.9 °F 37.8 °F 30.13 in Calm   1.0 mph 73% 0.00 in 0.0 W/m2
04:26 45.9 °F 37.8 °F 30.13 in Calm     73% 0.00 in 0.0 W/m2
04:32 45.9 °F 37.8 °F 30.13 in Calm     73% 0.00 in 0.0 W/m2
04:37 45.7 °F 37.6 °F 30.13 in Calm     73% 0.00 in 0.0 W/m2
04:42 45.7 °F 37.6 °F 30.13 in Calm     73% 0.00 in 0.0 W/m2
04:47 45.7 °F 37.9 °F 30.13 in Calm     74% 0.00 in 0.0 W/m2
04:52 45.5 °F 37.8 °F 30.13 in Calm   1.0 mph 74% 0.00 in 0.0 W/m2
04:57 45.3 °F 37.2 °F 30.13 in Calm     73% 0.00 in 0.0 W/m2
05:02 45.3 °F 37.6 °F 30.13 in Calm     74% 0.00 in 0.0 W/m2
05:07 45.3 °F 37.6 °F 30.13 in Calm     74% 0.00 in 0.0 W/m2
05:12 45.1 °F 37.4 °F 30.14 in Calm     74% 0.00 in 0.0 W/m2
05:17 45.1 °F 37.8 °F 30.13 in Calm     75% 0.00 in 0.0 W/m2
05:22 45.0 °F 37.9 °F 30.13 in Calm     76% 0.00 in 0.0 W/m2
05:24 45.0 °F 37.9 °F 30.13 in Calm     76% 0.00 in 0.0 W/m2
05:30 45.0 °F 37.9 °F 30.13 in Calm   1.0 mph 76% 0.00 in 0.0 W/m2
05:36 44.8 °F 37.8 °F 30.13 in Calm     76% 0.00 in 0.0 W/m2
05:41 44.8 °F 37.8 °F 30.13 in Calm     76% 0.00 in 0.0 W/m2
05:46 44.6 °F 37.6 °F 30.14 in Calm   1.0 mph 76% 0.00 in 0.0 W/m2
05:51 44.6 °F 37.6 °F 30.14 in Calm   1.0 mph 76% 0.00 in 0.0 W/m2
05:56 44.8 °F 37.8 °F 30.14 in Calm     76% 0.00 in 0.0 W/m2
06:01 44.8 °F 37.8 °F 30.14 in Calm     76% 0.00 in 0.0 W/m2
06:06 44.8 °F 37.8 °F 30.14 in Calm     76% 0.00 in 0.0 W/m2
06:11 45.0 °F 37.9 °F 30.14 in Calm     76% 0.00 in 0.0 W/m2
06:16 45.0 °F 37.9 °F 30.14 in Calm     76% 0.00 in 0.0 W/m2
06:21 45.0 °F 37.9 °F 30.14 in Calm     76% 0.00 in 0.0 W/m2
06:27 45.0 °F 38.1 °F 30.15 in Calm     77% 0.00 in 0.0 W/m2
06:32 45.0 °F 38.1 °F 30.15 in Calm   1.0 mph 77% 0.00 in 0.0 W/m2
06:37 45.0 °F 37.9 °F 30.15 in Calm   1.0 mph 76% 0.00 in 0.0 W/m2
06:43 45.0 °F 37.9 °F 30.15 in South 0.9 mph 2.0 mph 76% 0.00 in 0.0 W/m2
06:48 45.0 °F 37.6 °F 30.15 in SE 0.9 mph 2.0 mph 75% 0.00 in 0.0 W/m2
06:53 45.3 °F 37.6 °F 30.15 in Calm   1.0 mph 74% 0.00 in 0.0 W/m2
06:59 45.7 °F 37.9 °F 30.16 in Calm   1.0 mph 74% 0.00 in 0.0 W/m2
07:04 45.9 °F 38.3 °F 30.15 in Calm     75% 0.00 in 0.0 W/m2
07:09 45.9 °F 38.1 °F 30.16 in Calm     74% 0.00 in 0.0 W/m2
07:14 46.0 °F 38.3 °F 30.16 in Calm   1.0 mph 74% 0.00 in 0.0 W/m2
07:19 46.2 °F 38.5 °F 30.16 in Calm     74% 0.00 in 0.0 W/m2
07:24 46.2 °F 38.5 °F 30.16 in Calm     74% 0.00 in 5.0 W/m2
07:29 46.2 °F 38.5 °F 30.16 in Calm     74% 0.00 in 7.0 W/m2
07:34 46.2 °F 38.1 °F 30.16 in Calm     73% 0.00 in 9.0 W/m2
07:40 46.2 °F 38.5 °F 30.16 in Calm     74% 0.00 in 11.0 W/m2
07:45 46.2 °F 38.5 °F 30.17 in Calm     74% 0.00 in 12.0 W/m2
07:50 46.0 °F 38.5 °F 30.17 in Calm   1.0 mph 75% 0.00 in 14.0 W/m2
07:55 46.0 °F 38.5 °F 30.17 in Calm     75% 0.00 in 14.0 W/m2
08:00 46.2 °F 38.7 °F 30.17 in Calm     75% 0.00 in 16.0 W/m2
08:05 46.2 °F 38.7 °F 30.17 in Calm     75% 0.00 in 18.0 W/m2
08:10 46.6 °F 39.0 °F 30.17 in Calm   1.0 mph 75% 0.00 in 18.0 W/m2
08:15 46.8 °F 38.8 °F 30.17 in SE 0.9 mph 5.0 mph 74% 0.00 in 19.0 W/m2
08:20 47.5 °F 38.1 °F 30.17 in East 0.9 mph 4.0 mph 70% 0.00 in 21.0 W/m2
08:25 48.4 °F 38.3 °F 30.17 in Calm   3.0 mph 68% 0.00 in 21.0 W/m2
08:31 50.2 °F 38.5 °F 30.18 in NE 2.9 mph 6.0 mph 64% 0.00 in 23.0 W/m2
08:36 51.4 °F 38.5 °F 30.18 in ENE 4.0 mph 6.0 mph 61% 0.00 in 25.0 W/m2
08:41 53.1 °F 37.8 °F 30.18 in East 4.9 mph 7.0 mph 56% 0.00 in 25.0 W/m2
08:46 54.9 °F 38.1 °F 30.18 in ESE 4.9 mph 7.0 mph 53% 0.00 in 26.0 W/m2
08:51 55.9 °F 38.1 °F 30.18 in NE 10.1 mph 10.1 mph 51% 0.00 in 26.0 W/m2
08:57 57.0 °F 37.6 °F 30.18 in NE 6.9 mph 7.0 mph 48% 0.00 in 26.0 W/m2
09:02 57.9 °F 37.8 °F 30.18 in ENE 8.1 mph 9.0 mph 47% 0.00 in 28.0 W/m2
09:07 59.2 °F 37.9 °F 30.18 in NE 2.9 mph 13.0 mph 45% 0.00 in 42.0 W/m2
09:12 60.3 °F 38.3 °F 30.18 in ESE 2.9 mph 6.0 mph 44% 0.00 in 353.0 W/m2
09:17 61.3 °F 38.1 °F 30.18 in ENE 0.9 mph 10.0 mph 42% 0.00 in 371.0 W/m2
09:22 62.1 °F 38.1 °F 30.18 in ENE 2.9 mph 11.0 mph 41% 0.00 in 385.0 W/m2
09:27 62.8 °F 38.1 °F 30.18 in SSE 6.0 mph 10.0 mph 40% 0.00 in 403.0 W/m2
09:32 63.1 °F 38.5 °F 30.18 in East 4.0 mph 8.0 mph 40% 0.00 in 418.0 W/m2
09:37 63.9 °F 39.0 °F 30.18 in East 10.1 mph 10.1 mph 40% 0.00 in 434.0 W/m2
09:42 64.2 °F 38.1 °F 30.18 in East 2.9 mph 13.0 mph 38% 0.00 in 448.0 W/m2
09:47 64.8 °F 38.5 °F 30.18 in ENE 4.9 mph 10.0 mph 38% 0.00 in 462.0 W/m2
09:53 65.5 °F 38.5 °F 30.18 in ENE 6.0 mph 8.0 mph 37% 0.00 in 478.0 W/m2
09:58 66.0 °F 39.0 °F 30.18 in Calm   15.0 mph 37% 0.00 in 492.0 W/m2
10:03 66.6 °F 39.6 °F 30.18 in NNE 2.9 mph 9.0 mph 37% 0.00 in 504.0 W/m2
10:08 67.1 °F 39.2 °F 30.17 in NE 4.9 mph 8.0 mph 36% 0.00 in 519.0 W/m2
10:13 67.5 °F 40.3 °F 30.17 in NE 2.9 mph 7.0 mph 37% 0.00 in 529.0 W/m2
10:18 67.8 °F 39.9 °F 30.17 in NE 0.9 mph 6.0 mph 36% 0.00 in 545.0 W/m2
10:23 68.4 °F 39.6 °F 30.17 in NE 2.0 mph 10.0 mph 35% 0.00 in 557.0 W/m2
10:28 68.7 °F 39.9 °F 30.17 in WNW 2.9 mph 9.0 mph 35% 0.00 in 570.0 W/m2
10:33 68.9 °F 40.1 °F 30.17 in ENE 2.9 mph 6.0 mph 35% 0.00 in 582.0 W/m2
10:39 69.3 °F 40.5 °F 30.17 in Calm   7.0 mph 35% 0.00 in 592.0 W/m2
10:45 69.6 °F 40.8 °F 30.17 in ENE 2.0 mph 8.0 mph 35% 0.00 in 605.0 W/m2
10:50 70.0 °F 41.0 °F 30.17 in ENE 4.0 mph 5.0 mph 35% 0.00 in 613.0 W/m2
10:55 70.3 °F 41.4 °F 30.17 in NNE 6.9 mph 9.0 mph 35% 0.00 in 624.0 W/m2
11:00 70.5 °F 40.8 °F 30.16 in East 2.0 mph 8.0 mph 34% 0.00 in 633.0 W/m2
11:05 70.9 °F 41.2 °F 30.16 in Calm   7.0 mph 34% 0.00 in 643.0 W/m2
11:10 70.9 °F 41.2 °F 30.16 in NE 4.0 mph 14.0 mph 34% 0.00 in 652.0 W/m2
11:16 71.1 °F 42.1 °F 30.16 in ENE 2.0 mph 11.0 mph 35% 0.00 in 661.0 W/m2
11:21 71.1 °F 42.1 °F 30.15 in North 2.0 mph 11.0 mph 35% 0.00 in 668.0 W/m2
11:26 71.2 °F 42.3 °F 30.15 in ESE 6.0 mph 7.0 mph 35% 0.00 in 673.0 W/m2
11:31 71.4 °F 42.3 °F 30.14 in NNE 2.9 mph 5.0 mph 35% 0.00 in 680.0 W/m2
11:37 72.0 °F 42.1 °F 30.14 in NE 2.9 mph 8.0 mph 34% 0.00 in 687.0 W/m2
11:42 72.3 °F 43.2 °F 30.14 in Calm   6.0 mph 35% 0.00 in 693.0 W/m2
11:48 72.9 °F 42.8 °F 30.14 in East 4.0 mph 9.0 mph 34% 0.00 in 700.0 W/m2
Olympia, Windhoek, Namibia
Compliments of Weather Underground - 2.5 mb